Time;durP1;ratioP1;P1;durP2;ratioP2;P2;SDS_P1;SDS_P2;PMS_P1;PMS_P2;Temp;Humidity;BMP_temperature;BMP_pressure;BME280_temperature;BME280_humidity;BME280_pressure;Samples;Min_cycle;Max_cycle;Signal;HPM_P1;HPM_P2
2022/05/31 00:00:33;;;;;;;;;;;;;;;9.18;73.32;100016.98;106867;1274;111925;-70
2022/05/31 00:03:06;;;;;;;;;;;;;;;9.18;73.30;100016.31;105936;1274;125040;-70
2022/05/31 00:05:33;;;;;;;;;;;;;;;9.17;73.37;100018.58;106052;1274;106776;-70
2022/05/31 00:08:01;;;;;;;;;;;;;;;9.14;73.35;100018.30;105886;1274;125465;-70
2022/05/31 00:10:29;;;;;;;;;;;;;;;9.12;73.39;100019.92;106065;1274;97856;-70
2022/05/31 00:12:57;;;;;;;;;;;;;;;9.09;73.57;100021.73;106034;1274;112088;-70
2022/05/31 00:15:25;;;;;;;;;;;;;;;9.07;73.51;100018.52;105951;1274;125273;-70
2022/05/31 00:17:52;;;;;;;;;;;;;;;9.05;73.61;100017.17;106055;1274;108538;-71
2022/05/31 00:20:20;;;;;;;;;;;;;;;9.04;73.60;100017.06;106033;1274;124890;-70
2022/05/31 00:22:48;;;;;;;;;;;;;;;9.02;73.64;100014.86;106046;1274;97745;-70
2022/05/31 00:25:16;;;;;;;;;;;;;;;9.01;73.74;100018.89;105976;1274;125181;-70
2022/05/31 00:27:44;;;;;;;;;;;;;;;8.99;73.68;100018.40;106033;1276;108075;-70
2022/05/31 00:30:14;;;;;;;;;;;;;;;8.99;73.77;100018.42;106087;1274;107822;-70
2022/05/31 00:32:43;;;;;;;;;;;;;;;8.96;73.80;100017.80;107451;1274;124868;-70
2022/05/31 00:35:12;;;;;;;;;;;;;;;8.95;73.83;100024.58;107577;1274;96055;-70
2022/05/31 00:37:40;;;;;;;;;;;;;;;8.93;73.84;100028.11;106623;1274;125703;-69
2022/05/31 00:40:09;;;;;;;;;;;;;;;8.90;73.83;100032.70;106071;1274;108741;-70
2022/05/31 00:42:48;;;;;;;;;;;;;;;8.90;73.98;100033.59;106769;1274;108835;-70
2022/05/31 00:45:16;;;;;;;;;;;;;;;8.92;73.96;100035.78;105992;1274;125243;-69
2022/05/31 00:47:44;;;;;;;;;;;;;;;8.91;74.03;100036.66;105999;1274;97921;-70
2022/05/31 00:50:14;;;;;;;;;;;;;;;8.88;74.03;100040.42;105885;1275;125191;-71
2022/05/31 00:52:45;;;;;;;;;;;;;;;8.85;74.09;100036.69;106002;1277;109056;-70
2022/05/31 00:55:14;;;;;;;;;;;;;;;8.84;74.23;100036.04;107467;1274;125117;-70
2022/05/31 00:57:46;;;;;;;;;;;;;;;8.81;74.24;100034.73;107575;1274;96108;-71
2022/05/31 01:00:16;;;;;;;;;;;;;;;8.79;74.44;100033.55;107477;1275;96192;-70
2022/05/31 01:02:45;;;;;;;;;;;;;;;8.78;74.47;100047.27;107494;1274;124993;-70
2022/05/31 01:05:13;;;;;;;;;;;;;;;8.77;74.40;100047.97;107355;1274;108076;-70
2022/05/31 01:07:41;;;;;;;;;;;;;;;8.77;74.53;100044.87;105919;1274;125148;-70
2022/05/31 01:10:10;;;;;;;;;;;;;;;8.76;74.38;100051.30;106045;1274;97860;-70
2022/05/31 01:12:57;;;;;;;;;;;;;;;8.77;74.67;100052.14;107606;1274;95820;-70
2022/05/31 01:15:44;;;;;;;;;;;;;;;8.75;74.56;100052.70;106895;1274;112639;-69
2022/05/31 01:18:30;;;;;;;;;;;;;;;8.73;74.55;100049.32;106089;1274;109002;-70
2022/05/31 01:21:17;;;;;;;;;;;;;;;8.72;74.63;100055.74;105950;1274;124913;-70
2022/05/31 01:24:06;;;;;;;;;;;;;;;8.71;74.71;100058.20;106066;1276;97867;-70
2022/05/31 01:26:39;;;;;;;;;;;;;;;8.70;74.84;100057.73;105983;1274;124955;-70
2022/05/31 01:29:10;;;;;;;;;;;;;;;8.69;74.81;100059.66;107594;1274;112197;-69
2022/05/31 01:31:41;;;;;;;;;;;;;;;8.68;74.82;100061.23;107490;1274;125744;-69
2022/05/31 01:34:12;;;;;;;;;;;;;;;8.67;74.66;100068.39;107601;1274;107809;-69
2022/05/31 01:36:44;;;;;;;;;;;;;;;8.67;74.85;100068.39;107589;1274;96105;-70
2022/05/31 01:39:16;;;;;;;;;;;;;;;8.65;74.81;100072.41;106965;1277;125491;-69
2022/05/31 01:41:46;;;;;;;;;;;;;;;8.66;74.86;100072.23;107434;1274;112529;-69
2022/05/31 01:44:15;;;;;;;;;;;;;;;8.66;74.85;100073.78;105939;1276;124990;-71
2022/05/31 01:46:43;;;;;;;;;;;;;;;8.66;74.73;100079.52;106049;1274;108540;-72
2022/05/31 01:49:13;;;;;;;;;;;;;;;8.65;74.76;100085.09;105870;1274;125116;-70
2022/05/31 01:51:42;;;;;;;;;;;;;;;8.62;74.86;100081.00;106049;1274;97823;-71
2022/05/31 01:54:11;;;;;;;;;;;;;;;8.61;74.81;100084.14;106019;1276;111938;-71
2022/05/31 01:56:39;;;;;;;;;;;;;;;8.59;74.89;100085.59;105977;1274;125278;-71
2022/05/31 01:59:07;;;;;;;;;;;;;;;8.54;74.77;100084.85;106520;1276;108015;-69
2022/05/31 02:01:37;;;;;;;;;;;;;;;8.51;74.87;100083.20;105966;1274;125108;-69
2022/05/31 02:04:06;;;;;;;;;;;;;;;8.51;74.93;100090.15;106035;1274;97707;-70
2022/05/31 02:06:34;;;;;;;;;;;;;;;8.48;74.93;100088.48;106025;1274;112057;-69
2022/05/31 02:09:02;;;;;;;;;;;;;;;8.44;74.99;100090.48;107360;1276;125707;-70
2022/05/31 02:11:30;;;;;;;;;;;;;;;8.41;75.12;100094.69;106325;1275;108923;-69
2022/05/31 02:14:05;;;;;;;;;;;;;;;8.38;75.03;100099.98;105939;1274;125573;-69
2022/05/31 02:16:33;;;;;;;;;;;;;;;8.33;75.36;100099.41;106045;1274;97814;-70
2022/05/31 02:19:25;;;;;;;;;;;;;;;8.28;75.27;100100.56;106005;1274;125142;-69
2022/05/31 02:22:04;;;;;;;;;;;;;;;8.26;75.32;100098.54;106078;1274;108635;-70
2022/05/31 02:24:31;;;;;;;;;;;;;;;8.23;75.36;100099.80;106894;1276;108980;-69
2022/05/31 02:27:00;;;;;;;;;;;;;;;8.21;75.46;100102.62;105950;1274;125262;-69
2022/05/31 02:29:29;;;;;;;;;;;;;;;8.20;75.44;100101.95;106070;1274;97826;-69
2022/05/31 02:31:58;;;;;;;;;;;;;;;8.19;75.66;100098.70;107501;1274;124583;-70
2022/05/31 02:34:33;;;;;;;;;;;;;;;8.19;75.61;100099.92;107473;1275;109694;-70
2022/05/31 02:37:01;;;;;;;;;;;;;;;8.18;75.70;100102.36;106472;1276;108851;-70
2022/05/31 02:39:29;;;;;;;;;;;;;;;8.19;75.66;100105.63;105900;1274;124756;-70
2022/05/31 02:41:57;;;;;;;;;;;;;;;8.20;75.66;100104.56;106055;1274;97813;-70
2022/05/31 02:44:26;;;;;;;;;;;;;;;8.22;75.61;100102.44;107506;1274;125455;-70
2022/05/31 02:46:53;;;;;;;;;;;;;;;8.23;75.70;100100.51;107415;1274;107866;-70
2022/05/31 02:49:22;;;;;;;;;;;;;;;8.22;75.76;100102.77;106376;1274;125490;-69
2022/05/31 02:51:49;;;;;;;;;;;;;;;8.21;75.86;100105.92;105970;1275;98021;-70
2022/05/31 02:54:18;;;;;;;;;;;;;;;8.20;75.80;100104.90;106023;1276;97768;-70
2022/05/31 02:57:11;;;;;;;;;;;;;;;8.19;75.85;100107.02;107137;1276;124613;-70
2022/05/31 02:59:57;;;;;;;;;;;;;;;8.17;75.75;100107.58;107492;1276;108917;-70
2022/05/31 03:02:31;;;;;;;;;;;;;;;8.17;76.04;100106.54;107415;1274;126156;-70
2022/05/31 03:05:16;;;;;;;;;;;;;;;8.17;75.94;100106.04;107585;1274;96465;-70
2022/05/31 03:08:16;;;;;;;;;;;;;;;8.20;75.95;100107.33;107325;1274;126968;-70
2022/05/31 03:10:54;;;;;;;;;;;;;;;8.22;75.80;100109.71;107466;1276;112510;-69
2022/05/31 03:13:24;;;;;;;;;;;;;;;8.25;75.88;100113.10;107341;1276;125210;-70
2022/05/31 03:15:53;;;;;;;;;;;;;;;8.28;75.74;100117.37;107480;1274;107617;-70
2022/05/31 03:18:24;;;;;;;;;;;;;;;8.30;75.71;100115.59;107509;1274;96156;-70
2022/05/31 03:20:54;;;;;;;;;;;;;;;8.34;75.57;100118.96;106633;1274;125249;-69
2022/05/31 03:23:24;;;;;;;;;;;;;;;8.39;75.58;100120.92;106111;1274;112499;-70
2022/05/31 03:25:52;;;;;;;;;;;;;;;8.43;75.34;100125.48;106028;1274;125248;-70
2022/05/31 03:28:21;;;;;;;;;;;;;;;8.47;75.23;100127.84;105966;1274;108869;-69
2022/05/31 03:30:49;;;;;;;;;;;;;;;8.48;75.22;100122.94;106055;1274;97881;-70
2022/05/31 03:33:16;;;;;;;;;;;;;;;8.52;75.14;100124.77;105952;1274;124917;-69
2022/05/31 03:35:44;;;;;;;;;;;;;;;8.57;74.95;100128.43;106087;1274;112335;-70
2022/05/31 03:38:16;;;;;;;;;;;;;;;8.63;75.04;100131.77;106002;1274;124935;-69
2022/05/31 03:40:58;;;;;;;;;;;;;;;8.66;74.92;100126.48;106054;1274;108269;-70
2022/05/31 03:43:35;;;;;;;;;;;;;;;8.70;74.67;100124.11;105823;1275;125313;-69
2022/05/31 03:46:35;;;;;;;;;;;;;;;8.75;74.62;100130.71;105762;1276;97935;-69
2022/05/31 03:49:03;;;;;;;;;;;;;;;8.79;74.59;100133.23;106040;1273;112069;-70
2022/05/31 03:51:51;;;;;;;;;;;;;;;8.83;74.41;100131.92;107432;1276;109094;-70
2022/05/31 03:54:26;;;;;;;;;;;;;;;8.87;74.30;100130.08;107370;1276;109026;-70
2022/05/31 03:57:16;;;;;;;;;;;;;;;8.92;74.15;100136.52;107440;1274;125389;-70
2022/05/31 03:59:47;;;;;;;;;;;;;;;8.99;74.15;100137.91;107622;1274;96917;-70
2022/05/31 04:02:15;;;;;;;;;;;;;;;9.04;73.91;100141.91;107363;1274;125882;-71
2022/05/31 04:04:43;;;;;;;;;;;;;;;9.12;73.86;100150.02;106256;1274;107179;-71
2022/05/31 04:07:11;;;;;;;;;;;;;;;9.19;73.70;100155.55;105895;1274;125271;-70
2022/05/31 04:09:39;;;;;;;;;;;;;;;9.27;73.58;100157.06;106045;1276;97851;-70
2022/05/31 04:12:10;;;;;;;;;;;;;;;9.35;73.36;100154.59;106083;1274;97916;-70
2022/05/31 04:14:56;;;;;;;;;;;;;;;9.43;73.30;100154.16;107509;1274;124689;-71
2022/05/31 04:17:24;;;;;;;;;;;;;;;9.51;73.15;100159.50;107427;1274;107815;-70
2022/05/31 04:19:51;;;;;;;;;;;;;;;9.59;72.96;100154.38;107407;1274;126124;-70
2022/05/31 04:22:19;;;;;;;;;;;;;;;9.68;72.74;100156.20;106959;1274;97926;-70
2022/05/31 04:24:46;;;;;;;;;;;;;;;9.78;72.40;100160.61;105958;1274;98035;-71
2022/05/31 04:27:37;;;;;;;;;;;;;;;9.88;72.17;100165.86;106130;1274;112353;-69
2022/05/31 04:30:28;;;;;;;;;;;;;;;9.95;71.88;100167.89;105876;1274;108461;-69
2022/05/31 04:33:16;;;;;;;;;;;;;;;10.02;71.83;100168.70;105651;1274;126742;-70
2022/05/31 04:35:43;;;;;;;;;;;;;;;10.11;71.81;100174.19;106091;1274;98376;-70
2022/05/31 04:38:11;;;;;;;;;;;;;;;10.17;71.56;100175.17;105962;1274;125466;-69
2022/05/31 04:40:52;;;;;;;;;;;;;;;10.26;71.38;100176.69;106132;1274;112079;-69
2022/05/31 04:43:38;;;;;;;;;;;;;;;10.36;71.32;100175.30;105912;1275;125787;-68
2022/05/31 04:46:15;;;;;;;;;;;;;;;10.47;71.12;100180.34;105996;1275;107913;-69
2022/05/31 04:48:57;;;;;;;;;;;;;;;10.56;71.09;100178.98;106038;1274;97949;-69
2022/05/31 04:51:27;;;;;;;;;;;;;;;10.69;70.84;100179.44;105831;1274;125068;-69
2022/05/31 04:53:57;;;;;;;;;;;;;;;10.83;70.68;100176.54;106113;1274;112540;-71
2022/05/31 04:56:32;;;;;;;;;;;;;;;10.94;70.46;100172.49;106006;1274;126942;-71
2022/05/31 04:59:04;;;;;;;;;;;;;;;11.05;70.15;100174.87;106078;1274;108561;-68
2022/05/31 05:01:33;;;;;;;;;;;;;;;11.15;69.90;100178.52;105842;1274;125634;-69
2022/05/31 05:04:03;;;;;;;;;;;;;;;11.29;69.76;100175.61;107287;1274;96024;-69
2022/05/31 05:06:37;;;;;;;;;;;;;;;11.46;69.64;100186.48;106136;1274;112652;-69
2022/05/31 05:09:06;;;;;;;;;;;;;;;11.62;69.23;100187.77;105997;1275;125417;-69
2022/05/31 05:11:35;;;;;;;;;;;;;;;11.78;69.15;100184.05;107285;1274;109104;-69
2022/05/31 05:14:19;;;;;;;;;;;;;;;12.02;68.82;100185.75;105955;1274;125144;-70
2022/05/31 05:16:55;;;;;;;;;;;;;;;12.28;68.36;100183.13;105971;1276;97995;-70
2022/05/31 05:19:23;;;;;;;;;;;;;;;12.57;68.22;100186.84;106837;1274;125468;-69
2022/05/31 05:21:56;;;;;;;;;;;;;;;12.86;67.58;100187.58;105973;1276;108947;-69
2022/05/31 05:24:24;;;;;;;;;;;;;;;13.10;66.99;100181.64;106021;1276;108827;-70
2022/05/31 05:27:06;;;;;;;;;;;;;;;13.38;66.76;100185.52;105974;1276;125975;-69
2022/05/31 05:32:40;;;;;;;;;;;;;;;13.75;65.51;100187.64;105995;1274;137811;-70
2022/05/31 05:35:26;;;;;;;;;;;;;;;14.03;65.38;100190.54;106074;1274;109322;-69
2022/05/31 05:37:59;;;;;;;;;;;;;;;14.40;65.16;100187.55;106071;1274;126396;-68
2022/05/31 05:40:30;;;;;;;;;;;;;;;14.76;64.06;100193.45;106120;1274;97868;-70
2022/05/31 05:43:07;;;;;;;;;;;;;;;15.13;63.57;100195.61;106186;1274;97819;-71
2022/05/31 05:45:56;;;;;;;;;;;;;;;16.18;62.72;100191.02;107344;1276;112076;-70
2022/05/31 05:48:23;;;;;;;;;;;;;;;17.98;60.60;100187.73;107410;1275;108801;-71
2022/05/31 05:50:51;;;;;;;;;;;;;;;19.93;58.09;100186.33;107434;1274;125035;-71
2022/05/31 05:53:51;;;;;;;;;;;;;;;22.22;54.40;100177.45;106998;1274;96982;-71
2022/05/31 05:56:54;;;;;;;;;;;;;;;24.46;51.50;100172.46;106001;1276;124171;-69
2022/05/31 05:59:40;;;;;;;;;;;;;;;26.13;47.30;100171.48;106137;1274;111865;-71
2022/05/31 06:02:28;;;;;;;;;;;;;;;27.42;45.41;100168.85;105979;1274;124419;-71
2022/05/31 06:05:28;;;;;;;;;;;;;;;28.95;42.75;100170.69;106039;1274;108370;-70
2022/05/31 06:07:59;;;;;;;;;;;;;;;29.69;40.16;100171.04;106466;1276;124518;-71
2022/05/31 06:10:30;;;;;;;;;;;;;;;30.29;38.58;100164.95;106332;1274;97847;-70
2022/05/31 06:13:00;;;;;;;;;;;;;;;31.01;37.13;100165.31;105943;1274;112251;-70
2022/05/31 06:15:31;;;;;;;;;;;;;;;31.65;36.24;100172.30;105900;1275;124290;-69
2022/05/31 06:18:01;;;;;;;;;;;;;;;32.38;35.04;100171.20;105992;1274;109106;-70
2022/05/31 06:20:29;;;;;;;;;;;;;;;32.95;34.08;100174.41;105913;1274;125506;-71
2022/05/31 06:22:59;;;;;;;;;;;;;;;33.48;33.27;100175.86;107545;1274;96442;-70
2022/05/31 06:25:27;;;;;;;;;;;;;;;33.94;32.38;100171.61;107272;1274;124325;-70
2022/05/31 06:27:55;;;;;;;;;;;;;;;34.53;31.47;100169.86;106537;1275;108974;-69
2022/05/31 06:30:22;;;;;;;;;;;;;;;34.83;29.94;100165.08;106055;1276;107854;-69
2022/05/31 06:32:50;;;;;;;;;;;;;;;34.89;29.24;100164.83;105885;1275;124815;-69
2022/05/31 06:35:18;;;;;;;;;;;;;;;35.18;28.93;100163.49;106128;1274;98071;-70
2022/05/31 06:38:00;;;;;;;;;;;;;;;35.73;28.32;100163.85;105955;1274;124325;-70
2022/05/31 06:40:28;;;;;;;;;;;;;;;35.96;27.51;100162.62;107591;1274;109080;-70
2022/05/31 06:42:59;;;;;;;;;;;;;;;36.37;27.18;100160.12;107546;1274;108625;-71
2022/05/31 06:45:42;;;;;;;;;;;;;;;36.67;26.14;100163.52;107558;1274;98152;-70
2022/05/31 06:48:28;;;;;;;;;;;;;;;36.78;25.68;100159.69;107605;1274;96063;-70
2022/05/31 06:51:05;;;;;;;;;;;;;;;37.00;25.55;100162.44;107533;1274;124992;-70
2022/05/31 06:56:49;;;;;;;;;;;;;;;37.45;24.40;100166.34;107501;1273;124381;-70
2022/05/31 06:59:39;;;;;;;;;;;;;;;37.69;24.13;100170.10;107653;1274;96940;-70
2022/05/31 07:02:07;;;;;;;;;;;;;;;37.95;24.06;100178.33;107413;1274;126099;-70
2022/05/31 07:04:35;;;;;;;;;;;;;;;38.23;23.50;100170.00;106902;1274;97823;-70
2022/05/31 07:07:04;;;;;;;;;;;;;;;38.54;23.26;100170.84;106034;1274;109049;-69
2022/05/31 07:10:06;;;;;;;;;;;;;;;38.35;22.22;100179.42;107165;1274;107885;-70
2022/05/31 07:12:52;;;;;;;;;;;;;;;38.19;22.49;100179.31;107551;1274;96140;-71
2022/05/31 07:15:51;;;;;;;;;;;;;;;38.47;22.45;100176.26;107442;1275;96110;-69
2022/05/31 07:19:07;;;;;;;;;;;;;;;38.57;21.27;100177.70;107601;1274;111770;-69
2022/05/31 07:21:39;;;;;;;;;;;;;;;38.35;21.15;100193.05;106496;1275;107692;-70
2022/05/31 07:24:07;;;;;;;;;;;;;;;38.14;21.60;100188.55;105989;1274;108534;-71
2022/05/31 07:26:37;;;;;;;;;;;;;;;38.35;21.28;100190.35;105838;1276;124337;-70
2022/05/31 07:29:06;;;;;;;;;;;;;;;38.42;21.11;100188.98;106031;1274;97832;-70
2022/05/31 07:31:35;;;;;;;;;;;;;;;38.31;21.00;100186.27;106003;1274;124986;-69
2022/05/31 07:34:19;;;;;;;;;;;;;;;38.27;20.51;100180.93;107603;1274;107850;-70
2022/05/31 07:36:47;;;;;;;;;;;;;;;38.19;20.38;100185.46;107411;1274;108827;-70
2022/05/31 07:39:16;;;;;;;;;;;;;;;38.36;20.72;100186.48;107529;1274;124332;-70
2022/05/31 07:41:45;;;;;;;;;;;;;;;38.58;20.24;100187.86;107351;1276;96016;-69
2022/05/31 07:44:14;;;;;;;;;;;;;;;38.16;19.64;100189.70;107382;1274;124213;-70
2022/05/31 07:46:42;;;;;;;;;;;;;;;37.80;20.01;100192.13;107636;1274;106270;-70
2022/05/31 07:49:09;;;;;;;;;;;;;;;37.85;20.16;100188.88;107427;1274;124628;-70
2022/05/31 07:51:42;;;;;;;;;;;;;;;37.99;19.59;100189.83;107464;1274;95948;-69
2022/05/31 07:54:30;;;;;;;;;;;;;;;37.55;19.28;100189.17;106313;1274;97830;-70
2022/05/31 08:00:22;;;;;;;;;;;;;;;37.56;19.24;100188.50;106093;1274;109046;-69
2022/05/31 08:02:49;;;;;;;;;;;;;;;37.57;19.49;100183.58;105948;1274;124411;-70
2022/05/31 08:05:17;;;;;;;;;;;;;;;36.66;19.22;100192.95;106085;1274;98320;-70
2022/05/31 08:07:44;;;;;;;;;;;;;;;35.62;19.44;100190.27;105848;1274;124392;-69
2022/05/31 08:10:13;;;;;;;;;;;;;;;34.81;19.54;100190.46;106135;1273;97793;-68
2022/05/31 08:12:41;;;;;;;;;;;;;;;33.92;20.04;100192.05;106748;1273;108925;-69
2022/05/31 08:15:10;;;;;;;;;;;;;;;33.63;20.40;100192.77;105952;1276;124337;-70
2022/05/31 08:17:37;;;;;;;;;;;;;;;33.46;20.70;100182.73;107539;1274;96007;-70
2022/05/31 08:20:06;;;;;;;;;;;;;;;33.41;21.21;100184.23;107527;1272;124250;-70
2022/05/31 08:22:34;;;;;;;;;;;;;;;32.93;21.12;100183.78;107616;1274;111426;-70
2022/05/31 08:25:03;;;;;;;;;;;;;;;32.51;20.45;100184.13;106545;1274;109426;-69
2022/05/31 08:27:32;;;;;;;;;;;;;;;32.65;21.63;100182.02;106004;1274;124385;-69
2022/05/31 08:29:59;;;;;;;;;;;;;;;33.15;21.49;100182.59;106163;1274;97809;-70
2022/05/31 08:32:27;;;;;;;;;;;;;;;33.39;21.58;100181.30;106028;1274;124323;-69
2022/05/31 08:34:55;;;;;;;;;;;;;;;33.64;21.37;100187.94;107471;1274;112577;-69
2022/05/31 08:37:22;;;;;;;;;;;;;;;33.85;20.90;100192.23;105994;1274;124487;-69
2022/05/31 08:39:50;;;;;;;;;;;;;;;33.81;20.82;100192.44;106141;1274;108952;-69
2022/05/31 08:42:22;;;;;;;;;;;;;;;34.01;20.96;100194.45;107577;1274;97227;-69
2022/05/31 08:44:57;;;;;;;;;;;;;;;34.05;20.47;100198.48;106145;1274;124403;-70
2022/05/31 08:47:31;;;;;;;;;;;;;;;33.95;20.26;100193.14;106113;1274;112621;-69
2022/05/31 08:53:06;;;;;;;;;;;;;;;33.71;20.67;100192.30;106934;1274;109147;-69
2022/05/31 08:58:33;;;;;;;;;;;;;;;33.72;20.84;100197.26;105976;1274;98414;-70
2022/05/31 09:01:02;;;;;;;;;;;;;;;33.66;20.75;100190.57;106907;1274;111612;-70
2022/05/31 09:03:31;;;;;;;;;;;;;;;33.84;20.93;100193.84;107482;1274;124640;-70
2022/05/31 09:06:02;;;;;;;;;;;;;;;33.72;20.91;100189.77;107607;1274;109241;-69
2022/05/31 09:08:34;;;;;;;;;;;;;;;32.96;20.98;100195.18;106385;1274;124843;-69
2022/05/31 09:11:03;;;;;;;;;;;;;;;32.70;21.29;100198.40;106190;1274;97814;-69
2022/05/31 09:13:34;;;;;;;;;;;;;;;32.66;21.19;100208.88;105915;1274;124323;-68
2022/05/31 09:16:09;;;;;;;;;;;;;;;32.56;21.15;100203.88;106093;1276;107191;-69
2022/05/31 09:18:39;;;;;;;;;;;;;;;32.47;21.78;100201.59;105995;1274;108104;-70
2022/05/31 09:21:14;;;;;;;;;;;;;;;32.18;21.81;100202.21;107087;1274;124313;-71
2022/05/31 09:23:41;;;;;;;;;;;;;;;31.33;21.71;100200.71;106589;1274;97866;-69
2022/05/31 09:26:15;;;;;;;;;;;;;;;30.79;22.01;100200.92;105992;1274;124187;-69
2022/05/31 09:28:51;;;;;;;;;;;;;;;30.56;22.04;100207.27;106258;1274;108308;-69
2022/05/31 09:31:34;;;;;;;;;;;;;;;30.11;22.65;100209.77;105951;1274;124628;-69
2022/05/31 09:34:08;;;;;;;;;;;;;;;30.01;22.79;100210.14;106072;1274;97814;-69
2022/05/31 09:36:40;;;;;;;;;;;;;;;29.40;23.00;100208.36;106070;1276;97859;-70
2022/05/31 09:39:20;;;;;;;;;;;;;;;28.98;23.47;100213.40;106213;1274;125817;-69
2022/05/31 09:41:52;;;;;;;;;;;;;;;29.07;23.72;100212.04;107632;1274;108825;-69
2022/05/31 09:44:29;;;;;;;;;;;;;;;29.51;23.90;100212.79;107552;1274;124375;-70
2022/05/31 09:47:02;;;;;;;;;;;;;;;30.04;23.69;100212.02;107625;1274;96140;-70
2022/05/31 09:49:36;;;;;;;;;;;;;;;30.40;23.31;100209.09;107496;1274;124508;-69
2022/05/31 09:52:07;;;;;;;;;;;;;;;30.42;22.48;100217.27;106081;1274;112530;-69
2022/05/31 09:57:54;;;;;;;;;;;;;;;29.77;23.02;100214.48;106397;1275;108792;-69
2022/05/31 10:00:58;;;;;;;;;;;;;;;29.67;23.54;100214.10;107184;1274;96432;-69
2022/05/31 10:03:33;;;;;;;;;;;;;;;29.98;22.94;100222.17;107522;1274;124435;-69
2022/05/31 10:06:06;;;;;;;;;;;;;;;29.86;23.19;100214.59;107625;1274;112351;-68
2022/05/31 10:08:34;;;;;;;;;;;;;;;30.05;23.12;100219.36;107495;1274;124756;-70
2022/05/31 10:11:05;;;;;;;;;;;;;;;29.97;22.73;100216.16;106374;1274;108786;-70
2022/05/31 10:13:34;;;;;;;;;;;;;;;29.46;23.15;100218.98;106041;1274;124597;-69
2022/05/31 10:16:09;;;;;;;;;;;;;;;29.23;23.77;100216.89;106099;1274;97826;-70
2022/05/31 10:18:45;;;;;;;;;;;;;;;29.44;23.77;100220.16;106725;1274;111598;-69
2022/05/31 10:21:12;;;;;;;;;;;;;;;29.67;23.38;100217.79;105951;1273;125094;-70
2022/05/31 10:23:43;;;;;;;;;;;;;;;29.75;23.35;100215.80;106324;1274;109116;-70
2022/05/31 10:26:32;;;;;;;;;;;;;;;29.15;23.09;100214.36;107466;1274;124317;-70
2022/05/31 10:29:25;;;;;;;;;;;;;;;28.91;23.77;100208.60;107524;1273;96469;-70
2022/05/31 10:32:19;;;;;;;;;;;;;;;28.87;23.85;100208.95;107440;1274;124935;-70
2022/05/31 10:34:47;;;;;;;;;;;;;;;28.87;24.30;100206.10;106354;1274;108894;-69
2022/05/31 10:37:24;;;;;;;;;;;;;;;29.03;24.37;100216.04;106752;1274;124506;-69
2022/05/31 10:40:00;;;;;;;;;;;;;;;29.10;23.77;100206.36;107068;1274;97930;-70
2022/05/31 10:42:29;;;;;;;;;;;;;;;29.05;23.50;100208.11;106366;1274;97732;-70
2022/05/31 10:45:02;;;;;;;;;;;;;;;29.12;23.85;100206.57;107268;1273;301845;-70
2022/05/31 10:47:29;;;;;;;;;;;;;;;28.82;23.47;100203.11;106382;1275;109001;-69
2022/05/31 10:49:57;;;;;;;;;;;;;;;28.71;23.53;100201.28;106595;1274;124297;-71
2022/05/31 10:52:29;;;;;;;;;;;;;;;28.59;23.56;100212.25;107527;1275;97095;-70
2022/05/31 10:55:07;;;;;;;;;;;;;;;28.25;23.89;100209.66;106094;1274;98584;-66
2022/05/31 10:57:44;;;;;;;;;;;;;;;28.00;24.62;100213.15;107599;1274;112742;-66
2022/05/31 11:00:16;;;;;;;;;;;;;;;27.77;25.06;100210.14;107624;1274;108661;-66
2022/05/31 11:02:54;;;;;;;;;;;;;;;27.68;25.03;100212.11;107544;1274;124486;-66
2022/05/31 11:05:26;;;;;;;;;;;;;;;27.40;24.72;100207.52;107480;1274;96018;-67
2022/05/31 11:13:38;;;;;;;;;;;;;;;26.71;25.81;100209.70;106480;1273;124622;-66
2022/05/31 11:16:09;;;;;;;;;;;;;;;26.78;26.14;100204.23;107538;1274;109022;-67
2022/05/31 11:18:43;;;;;;;;;;;;;;;26.93;26.07;100205.66;107501;1276;96061;-70
2022/05/31 11:21:14;;;;;;;;;;;;;;;27.15;26.04;100202.60;107435;1274;124178;-69
2022/05/31 11:23:59;;;;;;;;;;;;;;;27.14;25.63;100203.77;106623;1274;111449;-70
2022/05/31 11:26:35;;;;;;;;;;;;;;;26.64;25.64;100200.98;107434;1273;124387;-71
2022/05/31 11:29:29;;;;;;;;;;;;;;;26.50;26.56;100205.58;107545;1274;108880;-69
2022/05/31 11:32:03;;;;;;;;;;;;;;;26.74;26.80;100194.23;107482;1274;124853;-69
2022/05/31 11:34:40;;;;;;;;;;;;;;;26.90;26.40;100195.80;107622;1273;96009;-69
2022/05/31 11:37:16;;;;;;;;;;;;;;;26.94;25.68;100194.02;107611;1274;110452;-69
2022/05/31 11:39:53;;;;;;;;;;;;;;;26.93;25.52;100203.74;107579;1274;107761;-69
2022/05/31 11:42:25;;;;;;;;;;;;;;;26.92;25.12;100193.67;107590;1273;108231;-70
2022/05/31 11:45:01;;;;;;;;;;;;;;;26.75;25.28;100190.92;107403;1274;124309;-69
2022/05/31 11:47:44;;;;;;;;;;;;;;;26.55;25.21;100193.70;107576;1274;96258;-71
2022/05/31 11:50:15;;;;;;;;;;;;;;;26.00;24.72;100192.06;107404;1276;124139;-69
2022/05/31 11:52:54;;;;;;;;;;;;;;;25.60;25.54;100201.85;107580;1276;107602;-69
2022/05/31 11:55:26;;;;;;;;;;;;;;;25.53;25.96;100204.34;107435;1276;124700;-69
2022/05/31 11:57:59;;;;;;;;;;;;;;;25.65;25.97;100198.38;107553;1274;96874;-70
2022/05/31 12:00:27;;;;;;;;;;;;;;;25.71;26.01;100195.13;107577;1274;95852;-69
2022/05/31 12:02:56;;;;;;;;;;;;;;;25.66;25.65;100193.48;107545;1274;124825;-69
2022/05/31 12:05:28;;;;;;;;;;;;;;;25.34;25.54;100197.98;107562;1274;109115;-69
2022/05/31 12:07:58;;;;;;;;;;;;;;;25.09;25.85;100191.58;107489;1274;124454;-68
2022/05/31 12:10:27;;;;;;;;;;;;;;;25.13;25.94;100191.69;107601;1274;96410;-70
2022/05/31 12:12:55;;;;;;;;;;;;;;;24.88;25.15;100192.62;107392;1274;96260;-69
2022/05/31 12:15:24;;;;;;;;;;;;;;;24.45;25.70;100188.61;106042;1274;124192;-69
2022/05/31 12:17:54;;;;;;;;;;;;;;;24.28;26.21;100188.39;106280;1274;108998;-70
2022/05/31 12:20:29;;;;;;;;;;;;;;;24.04;26.27;100196.20;107421;1276;124376;-70
2022/05/31 12:22:59;;;;;;;;;;;;;;;23.94;26.40;100193.70;107603;1274;96105;-70
2022/05/31 12:25:30;;;;;;;;;;;;;;;23.88;26.72;100191.58;107498;1274;124570;-70
2022/05/31 12:28:06;;;;;;;;;;;;;;;24.00;26.96;100186.19;107607;1274;112312;-70
2022/05/31 12:30:37;;;;;;;;;;;;;;;24.06;26.43;100185.11;107601;1274;108901;-69
2022/05/31 12:33:25;;;;;;;;;;;;;;;23.76;26.53;100184.66;107490;1274;125016;-70
2022/05/31 12:35:54;;;;;;;;;;;;;;;23.51;26.37;100179.91;107565;1274;96041;-70
2022/05/31 12:38:22;;;;;;;;;;;;;;;23.45;26.74;100172.09;107489;1274;125602;-70
2022/05/31 12:40:51;;;;;;;;;;;;;;;23.43;26.84;100172.03;106134;1274;112661;-69
2022/05/31 12:43:33;;;;;;;;;;;;;;;23.53;27.39;100167.11;105990;1274;125705;-69
2022/05/31 12:46:19;;;;;;;;;;;;;;;23.84;27.73;100159.21;106092;1274;108137;-69
2022/05/31 12:48:54;;;;;;;;;;;;;;;24.10;27.16;100156.94;106034;1276;97884;-69
2022/05/31 12:51:24;;;;;;;;;;;;;;;24.14;26.49;100156.55;106019;1274;124309;-69
2022/05/31 12:53:56;;;;;;;;;;;;;;;23.99;26.63;100156.49;106109;1274;114026;-69
2022/05/31 12:56:37;;;;;;;;;;;;;;;23.84;26.92;100158.75;105953;1274;126244;-70
2022/05/31 12:59:06;;;;;;;;;;;;;;;23.89;27.33;100158.25;107602;1274;108637;-70
2022/05/31 13:01:43;;;;;;;;;;;;;;;23.87;27.36;100154.34;107511;1274;124877;-70
2022/05/31 13:04:20;;;;;;;;;;;;;;;23.92;27.34;100155.84;107561;1274;96227;-70
2022/05/31 13:07:07;;;;;;;;;;;;;;;23.95;27.12;100147.20;107120;1276;112399;-69
2022/05/31 13:09:36;;;;;;;;;;;;;;;24.04;27.10;100150.16;106083;1273;108517;-69
2022/05/31 13:20:29;;;;;;;;;;;;;;;24.50;27.46;100151.39;105939;1276;124467;-69
2022/05/31 13:22:59;;;;;;;;;;;;;;;24.09;26.25;100148.85;106088;1275;109176;-70
2022/05/31 13:25:30;;;;;;;;;;;;;;;23.39;26.59;100155.19;106028;1274;124950;-70
2022/05/31 13:27:59;;;;;;;;;;;;;;;22.96;27.04;100152.38;105859;1276;97851;-69